createdAt,value
2023-05-21T00:02:17.303Z,37.81
2023-05-21T00:12:18.748Z,38.25
2023-05-21T00:22:21.778Z,38.46
2023-05-21T00:32:23.194Z,38.44
2023-05-21T00:42:24.477Z,38.39
2023-05-21T00:52:25.769Z,38.61
2023-05-21T01:02:29.291Z,38.74
2023-05-21T01:12:33.799Z,38.49
2023-05-21T01:22:38.001Z,38.90
2023-05-21T01:32:39.495Z,39.06
2023-05-21T01:42:40.901Z,38.99
2023-05-21T01:52:46.922Z,38.89
2023-05-21T02:02:48.343Z,39.40
2023-05-21T02:12:49.731Z,39.45
2023-05-21T02:22:52.279Z,39.15
2023-05-21T02:32:57.179Z,39.26
2023-05-21T02:42:58.624Z,39.26
2023-05-21T02:53:02.452Z,39.54
2023-05-21T03:03:05.036Z,39.36
2023-05-21T03:13:08.114Z,39.65
2023-05-21T03:23:10.993Z,39.97
2023-05-21T03:33:12.383Z,39.86
2023-05-21T03:43:15.858Z,40.30
2023-05-21T03:53:17.477Z,39.84
2023-05-21T04:03:22.671Z,40.33
2023-05-21T04:13:24.607Z,40.35
2023-05-21T04:23:25.931Z,40.08
2023-05-21T04:33:28.373Z,40.28
2023-05-21T04:43:29.653Z,40.36
2023-05-21T04:53:31.000Z,40.76
2023-05-21T05:03:32.377Z,40.38
2023-05-21T05:13:38.679Z,40.67
2023-05-21T05:23:41.861Z,40.37
2023-05-21T05:33:43.209Z,41.00
2023-05-21T05:43:44.652Z,41.01
2023-05-21T05:53:46.037Z,40.81
2023-05-21T06:03:47.585Z,41.27
2023-05-21T06:13:51.264Z,41.26
2023-05-21T06:23:52.702Z,41.86
2023-05-21T06:33:54.244Z,42.14
2023-05-21T06:44:02.697Z,42.08
2023-05-21T06:54:10.731Z,41.65
2023-05-21T07:04:21.155Z,42.04
2023-05-21T07:14:34.004Z,42.41
2023-05-21T07:24:38.577Z,42.51
2023-05-21T07:34:46.428Z,43.34
2023-05-21T07:44:53.837Z,43.91
2023-05-21T07:55:01.867Z,44.35
2023-05-21T08:05:16.415Z,44.79
2023-05-21T08:15:20.795Z,45.25
2023-05-21T08:25:31.392Z,45.49
2023-05-21T08:35:37.122Z,45.39
2023-05-21T08:45:47.860Z,45.88
2023-05-21T08:55:51.744Z,46.45
2023-05-21T09:06:03.945Z,46.54
2023-05-21T09:16:09.209Z,46.97
2023-05-21T09:26:16.780Z,47.35
2023-05-21T09:36:26.322Z,47.59
2023-05-21T09:46:33.890Z,47.99
2023-05-21T09:56:41.864Z,47.77
2023-05-21T10:06:49.789Z,48.09
2023-05-21T10:16:59.419Z,48.30
2023-05-21T10:27:09.343Z,48.83
2023-05-21T10:37:13.968Z,48.90
2023-05-21T10:47:23.128Z,49.18
2023-05-21T10:57:31.813Z,49.13
2023-05-21T11:07:40.694Z,49.45
2023-05-21T11:17:57.820Z,48.88
2023-05-21T11:27:59.320Z,50.19
2023-05-21T11:38:02.974Z,50.31
2023-05-21T11:48:18.101Z,50.47
2023-05-21T11:58:20.541Z,50.83
2023-05-21T12:08:28.729Z,50.72
2023-05-21T12:18:39.320Z,50.25
2023-05-21T12:28:46.900Z,50.27
2023-05-21T12:38:58.699Z,51.25
2023-05-21T12:49:01.884Z,50.52
2023-05-21T12:59:09.931Z,50.63
2023-05-21T13:09:23.884Z,51.14
2023-05-21T13:19:27.474Z,50.66
2023-05-21T13:29:46.119Z,50.81
2023-05-21T13:39:49.806Z,50.56
2023-05-21T14:00:10.380Z,50.41
2023-05-21T14:10:15.493Z,51.04
2023-05-21T14:20:18.006Z,51.26
2023-05-21T14:30:28.246Z,51.08
2023-05-21T14:54:05.373Z,51.09
2023-05-21T15:12:13.078Z,51.17
2023-05-21T15:22:17.614Z,51.21
2023-05-21T15:53:17.054Z,51.32
2023-05-21T16:03:22.945Z,51.07
2023-05-21T16:23:39.742Z,51.08
2023-05-21T16:33:41.240Z,51.06
2023-05-21T16:43:53.194Z,51.15
2023-05-21T16:53:54.901Z,50.95
2023-05-21T17:04:13.967Z,51.29
2023-05-21T17:14:30.306Z,50.91
2023-05-21T17:45:19.189Z,49.87
2023-05-21T17:55:28.438Z,50.50
2023-05-21T18:05:38.962Z,50.80
2023-05-21T18:15:44.080Z,51.72
2023-05-21T18:25:55.011Z,50.88
2023-05-21T18:36:00.864Z,50.83
2023-05-21T18:46:10.955Z,49.95
2023-05-21T19:16:59.210Z,50.17
2023-05-21T19:27:09.722Z,51.35
2023-05-21T19:37:11.178Z,51.84
2023-05-21T19:47:16.634Z,51.20
2023-05-21T19:57:18.074Z,50.17
2023-05-21T20:07:22.216Z,50.81
2023-05-21T20:17:23.664Z,50.04
2023-05-21T20:27:28.245Z,50.73
2023-05-21T20:37:52.294Z,50.73
2023-05-21T20:47:56.729Z,50.49
2023-05-21T20:57:58.207Z,50.48
2023-05-21T21:07:59.734Z,50.47
2023-05-21T21:18:01.104Z,50.78
2023-05-21T21:28:02.406Z,50.76
2023-05-21T21:38:03.793Z,50.75
2023-05-21T21:48:06.992Z,50.43
2023-05-21T21:58:08.916Z,50.56
2023-05-21T22:08:10.236Z,49.70
2023-05-21T22:18:12.882Z,50.32
2023-05-21T22:28:14.247Z,49.90
2023-05-21T22:38:17.524Z,50.21
2023-05-21T22:48:18.866Z,50.45
2023-05-21T22:58:20.174Z,50.45
2023-05-21T23:08:21.567Z,50.16
2023-05-21T23:18:23.006Z,50.68
2023-05-21T23:28:24.370Z,49.98
2023-05-21T23:38:25.693Z,50.16
2023-05-21T23:48:29.372Z,50.38
2023-05-21T23:58:30.708Z,49.75
